createdAt,value
2022-09-26T00:00:23.491Z,15.60
2022-09-26T00:02:50.943Z,15.75
2022-09-26T00:05:18.396Z,15.69
2022-09-26T00:07:45.739Z,15.72
2022-09-26T00:10:13.080Z,15.53
2022-09-26T00:12:40.440Z,15.87
2022-09-26T00:15:07.781Z,15.90
2022-09-26T00:17:35.144Z,15.89
2022-09-26T00:20:08.433Z,15.94
2022-09-26T00:22:35.781Z,15.84
2022-09-26T00:25:03.117Z,15.83
2022-09-26T00:27:30.357Z,15.69
2022-09-26T00:29:57.721Z,15.37
2022-09-26T00:32:25.065Z,15.32
2022-09-26T00:34:52.427Z,14.93
2022-09-26T00:37:19.781Z,14.97
2022-09-26T00:39:47.148Z,15.03
2022-09-26T00:42:14.505Z,15.10
2022-09-26T00:44:41.877Z,14.77
2022-09-26T00:47:09.227Z,14.08
2022-09-26T00:49:36.564Z,13.80
2022-09-26T00:52:03.925Z,14.16
2022-09-26T00:54:31.271Z,14.47
2022-09-26T00:56:58.720Z,14.57
2022-09-26T00:59:26.071Z,14.58
2022-09-26T01:01:53.499Z,14.44
2022-09-26T01:04:20.942Z,14.18
2022-09-26T01:06:48.305Z,13.74
2022-09-26T01:09:15.786Z,13.87
2022-09-26T01:11:43.226Z,14.00
2022-09-26T01:14:10.578Z,14.10
2022-09-26T01:16:38.137Z,14.19
2022-09-26T01:19:05.633Z,13.64
2022-09-26T01:21:33.064Z,14.03
2022-09-26T01:24:00.587Z,13.86
2022-09-26T01:26:27.948Z,13.85
2022-09-26T01:28:55.307Z,13.63
2022-09-26T01:31:22.723Z,13.85
2022-09-26T01:33:50.125Z,13.85
2022-09-26T01:36:17.475Z,13.85
2022-09-26T01:38:44.839Z,13.93
2022-09-26T01:41:21.147Z,13.22
2022-09-26T01:43:48.507Z,13.15
2022-09-26T01:46:15.902Z,12.98
2022-09-26T01:48:43.279Z,13.04
2022-09-26T01:51:10.637Z,13.39
2022-09-26T01:53:37.984Z,13.18
2022-09-26T01:56:08.220Z,13.52
2022-09-26T01:58:35.567Z,13.27
2022-09-26T02:01:02.981Z,13.34
2022-09-26T02:03:32.397Z,13.19
2022-09-26T02:05:59.750Z,13.55
2022-09-26T02:08:27.115Z,13.46
2022-09-26T02:10:54.473Z,13.58
2022-09-26T02:13:21.837Z,13.44
2022-09-26T02:15:49.198Z,13.00
2022-09-26T02:18:16.570Z,13.31
2022-09-26T02:20:43.926Z,13.48
2022-09-26T02:23:11.264Z,13.46
2022-09-26T02:25:38.633Z,13.23
2022-09-26T02:28:05.997Z,13.03
2022-09-26T02:30:33.462Z,12.88
2022-09-26T02:33:00.818Z,13.21
2022-09-26T02:35:28.172Z,13.34
2022-09-26T02:37:55.537Z,13.22
2022-09-26T02:40:22.938Z,13.56
2022-09-26T02:42:50.314Z,13.58
2022-09-26T02:45:17.681Z,13.67
2022-09-26T02:47:45.025Z,13.78
2022-09-26T02:50:12.368Z,13.88
2022-09-26T02:52:39.737Z,13.92
2022-09-26T02:55:07.087Z,13.94
2022-09-26T02:57:34.457Z,14.10
2022-09-26T03:00:01.815Z,14.37
2022-09-26T03:02:29.183Z,14.09
2022-09-26T03:04:56.565Z,14.47
2022-09-26T03:07:23.943Z,14.05
2022-09-26T03:09:51.307Z,14.02
2022-09-26T03:12:18.681Z,13.94
2022-09-26T03:14:46.030Z,13.58
2022-09-26T03:17:13.376Z,13.75
2022-09-26T03:19:40.735Z,13.81
2022-09-26T03:22:08.095Z,13.95
2022-09-26T03:24:35.465Z,13.63
2022-09-26T03:27:02.808Z,13.78
2022-09-26T03:29:30.148Z,13.59
2022-09-26T03:31:57.651Z,13.54
2022-09-26T03:34:25.059Z,13.48
2022-09-26T03:36:52.425Z,13.62
2022-09-26T03:39:19.810Z,13.81
2022-09-26T03:41:47.162Z,13.99
2022-09-26T03:44:14.516Z,14.18
2022-09-26T03:46:41.906Z,14.21
2022-09-26T03:49:09.272Z,14.45
2022-09-26T03:51:36.631Z,14.50
2022-09-26T03:54:04.015Z,14.49
2022-09-26T03:56:31.365Z,14.55
2022-09-26T03:58:58.733Z,14.69
2022-09-26T04:01:26.182Z,14.81
2022-09-26T04:03:56.487Z,14.69
2022-09-26T04:06:23.842Z,14.64
2022-09-26T04:08:51.228Z,14.71
2022-09-26T04:11:18.583Z,14.12
2022-09-26T04:13:53.965Z,14.24
2022-09-26T04:16:21.665Z,14.59
2022-09-26T04:18:49.057Z,14.60
2022-09-26T04:21:16.412Z,14.75
2022-09-26T04:23:43.774Z,14.58
2022-09-26T04:26:13.187Z,14.79
2022-09-26T04:28:40.544Z,14.59
2022-09-26T04:31:07.937Z,14.38
2022-09-26T04:33:35.403Z,14.62
2022-09-26T04:36:02.761Z,14.45
2022-09-26T04:38:30.102Z,14.46
2022-09-26T04:40:57.519Z,14.51
2022-09-26T04:43:24.934Z,14.55
2022-09-26T04:45:52.367Z,14.57
2022-09-26T04:48:19.753Z,13.73
2022-09-26T04:50:47.226Z,14.25
2022-09-26T04:53:14.683Z,13.06
2022-09-26T04:55:42.031Z,13.17
2022-09-26T04:58:09.398Z,13.21
2022-09-26T05:00:36.849Z,12.97
2022-09-26T05:03:04.275Z,12.77
2022-09-26T05:05:31.641Z,13.07
2022-09-26T05:07:59.030Z,12.79
2022-09-26T05:10:26.390Z,12.40
2022-09-26T05:12:53.762Z,12.59
2022-09-26T05:15:21.130Z,11.86
2022-09-26T05:17:48.507Z,11.68
2022-09-26T05:20:15.906Z,11.56
2022-09-26T05:22:43.275Z,11.88
2022-09-26T05:25:10.644Z,12.20
2022-09-26T05:27:38.053Z,12.13
2022-09-26T05:30:05.420Z,12.34
2022-09-26T05:32:32.782Z,11.93
2022-09-26T05:35:00.163Z,11.99
2022-09-26T05:37:27.524Z,12.07
2022-09-26T05:39:54.868Z,12.23
2022-09-26T05:42:22.245Z,11.80
2022-09-26T05:44:49.598Z,11.97
2022-09-26T05:47:16.952Z,12.10
2022-09-26T05:49:44.312Z,12.31
2022-09-26T05:52:11.658Z,12.49
2022-09-26T05:54:39.131Z,12.82
2022-09-26T05:57:06.497Z,12.51
2022-09-26T05:59:33.861Z,12.70
2022-09-26T06:02:01.390Z,12.95
2022-09-26T06:04:28.811Z,13.14
2022-09-26T06:06:56.181Z,13.07
2022-09-26T06:09:23.565Z,12.89
2022-09-26T06:11:50.931Z,12.50
2022-09-26T06:14:18.303Z,12.48
2022-09-26T06:16:45.763Z,12.52
2022-09-26T06:19:13.174Z,12.27
2022-09-26T06:21:40.528Z,11.86
2022-09-26T06:24:07.912Z,11.64
2022-09-26T06:26:35.262Z,11.48
2022-09-26T06:29:02.614Z,11.98
2022-09-26T06:31:30.103Z,12.04
2022-09-26T06:34:00.157Z,12.17
2022-09-26T06:36:27.496Z,12.37
2022-09-26T06:38:54.863Z,12.11
2022-09-26T06:41:22.205Z,12.51
2022-09-26T06:43:49.426Z,12.25
2022-09-26T06:46:16.918Z,12.33
2022-09-26T06:48:44.354Z,12.54
2022-09-26T06:51:11.704Z,12.53
2022-09-26T06:53:39.063Z,12.82
2022-09-26T06:56:06.438Z,12.15
2022-09-26T06:58:33.829Z,12.36
2022-09-26T07:01:01.344Z,12.56
2022-09-26T07:03:28.700Z,12.42
2022-09-26T07:05:56.179Z,12.77
2022-09-26T07:08:43.414Z,12.72
2022-09-26T07:11:32.855Z,12.54
2022-09-26T07:13:58.197Z,12.31
2022-09-26T07:16:25.627Z,12.02
2022-09-26T07:18:52.998Z,12.02
2022-09-26T07:21:20.343Z,12.21
2022-09-26T07:23:47.745Z,12.06
2022-09-26T07:26:15.127Z,12.33
2022-09-26T07:28:43.659Z,12.21
2022-09-26T07:31:11.051Z,12.58
2022-09-26T07:33:38.487Z,12.33
2022-09-26T07:36:05.944Z,12.07
2022-09-26T07:38:33.328Z,12.34
2022-09-26T07:41:00.894Z,12.78
2022-09-26T07:43:53.686Z,12.74
2022-09-26T07:46:15.786Z,12.20
2022-09-26T07:48:43.150Z,11.68
2022-09-26T07:51:10.501Z,11.86
2022-09-26T07:53:37.883Z,12.03
2022-09-26T07:56:05.247Z,12.15
2022-09-26T07:58:32.592Z,12.34
2022-09-26T08:00:59.966Z,12.37
2022-09-26T08:03:27.316Z,12.32
2022-09-26T08:05:54.668Z,12.53
2022-09-26T08:08:22.048Z,12.55
2022-09-26T08:10:49.395Z,12.54
2022-09-26T08:13:16.762Z,11.88
2022-09-26T08:15:44.179Z,12.02
2022-09-26T08:18:11.716Z,12.34
2022-09-26T08:20:39.075Z,12.37
2022-09-26T08:23:06.416Z,12.87
2022-09-26T08:25:33.794Z,12.89
2022-09-26T08:28:01.138Z,12.53
2022-09-26T08:30:28.480Z,12.62
2022-09-26T08:32:55.854Z,12.93
2022-09-26T08:35:23.195Z,13.02
2022-09-26T08:37:50.563Z,12.83
2022-09-26T08:40:17.974Z,12.79
2022-09-26T08:42:45.339Z,12.64
2022-09-26T08:45:12.723Z,12.94
2022-09-26T08:47:40.118Z,13.16
2022-09-26T08:50:07.482Z,13.55
2022-09-26T08:52:34.825Z,13.65
2022-09-26T08:55:02.209Z,13.57
2022-09-26T08:57:29.551Z,13.24
2022-09-26T08:59:56.915Z,13.23
2022-09-26T09:02:26.548Z,12.89
2022-09-26T09:04:54.243Z,12.77
2022-09-26T09:07:21.603Z,12.89
2022-09-26T09:09:49.070Z,12.69
2022-09-26T09:12:18.606Z,13.02
2022-09-26T09:15:07.578Z,13.11
2022-09-26T09:17:36.457Z,12.69
2022-09-26T09:20:03.823Z,12.52
2022-09-26T09:22:31.203Z,12.81
2022-09-26T09:24:58.563Z,12.71
2022-09-26T09:30:17.096Z,13.21
2022-09-26T09:32:44.900Z,12.91
2022-09-26T09:35:15.111Z,12.69
2022-09-26T09:37:42.461Z,13.11
2022-09-26T09:57:22.996Z,12.90
2022-09-26T10:00:10.555Z,12.61
2022-09-26T10:02:58.234Z,13.03
2022-09-26T10:05:45.826Z,12.85
2022-09-26T10:08:33.380Z,13.11
2022-09-26T10:11:20.929Z,12.59
2022-09-26T10:14:08.456Z,12.85
2022-09-26T10:16:56.638Z,13.17
2022-09-26T10:19:44.191Z,13.14
2022-09-26T10:22:31.728Z,13.11
2022-09-26T10:25:19.265Z,12.78
2022-09-26T10:28:06.837Z,12.98
2022-09-26T10:30:54.447Z,12.94
2022-09-26T10:33:42.025Z,13.46
2022-09-26T10:36:29.566Z,13.48
2022-09-26T10:39:19.107Z,13.41
2022-09-26T10:42:06.661Z,13.25
2022-09-26T10:44:54.211Z,13.55
2022-09-26T10:47:41.750Z,13.33
2022-09-26T10:50:29.302Z,13.44
2022-09-26T10:53:16.841Z,13.58
2022-09-26T10:56:04.406Z,13.95
2022-09-26T10:58:52.299Z,13.78
2022-09-26T11:01:39.946Z,13.98
2022-09-26T11:04:27.584Z,14.45
2022-09-26T11:07:15.145Z,14.38
2022-09-26T11:10:02.795Z,14.14
2022-09-26T11:12:50.349Z,14.64
2022-09-26T11:15:37.940Z,14.35
2022-09-26T11:18:25.483Z,14.79
2022-09-26T11:21:27.807Z,14.99
2022-09-26T11:24:16.548Z,14.74
2022-09-26T11:27:04.132Z,14.88
2022-09-26T11:29:51.712Z,15.11
2022-09-26T11:32:39.273Z,15.32
2022-09-26T11:35:26.854Z,14.80
2022-09-26T11:38:14.403Z,14.91
2022-09-26T11:41:02.025Z,14.44
2022-09-26T11:43:49.651Z,14.93
2022-09-26T11:46:37.235Z,13.89
2022-09-26T11:49:24.848Z,15.15
2022-09-26T11:52:12.378Z,14.74
2022-09-26T11:54:59.955Z,14.94
2022-09-26T11:57:47.516Z,14.92
2022-09-26T12:00:35.099Z,14.75
2022-09-26T12:03:22.765Z,14.86
2022-09-26T12:06:10.436Z,15.47
2022-09-26T12:08:57.992Z,15.35
2022-09-26T12:11:45.561Z,14.89
2022-09-26T12:14:33.112Z,14.91
2022-09-26T12:17:20.682Z,15.31
2022-09-26T12:20:08.234Z,15.28
2022-09-26T12:22:55.798Z,15.01
2022-09-26T12:25:43.360Z,14.28
2022-09-26T12:28:31.027Z,14.26
2022-09-26T12:31:20.627Z,14.79
2022-09-26T12:34:08.242Z,14.45
2022-09-26T12:36:57.773Z,14.17
2022-09-26T12:39:47.340Z,14.60
2022-09-26T12:42:34.883Z,15.02
2022-09-26T12:45:22.450Z,15.29
2022-09-26T12:48:10.053Z,14.79
2022-09-26T12:50:57.598Z,14.83
2022-09-26T12:53:45.177Z,14.72
2022-09-26T12:56:32.835Z,15.13
2022-09-26T12:59:20.417Z,14.90
2022-09-26T13:02:08.030Z,14.35
2022-09-26T13:04:55.666Z,14.73
2022-09-26T13:07:43.233Z,14.95
2022-09-26T13:10:30.815Z,15.08
2022-09-26T13:13:18.399Z,15.17
2022-09-26T13:16:06.043Z,14.85
2022-09-26T13:18:53.614Z,14.71
2022-09-26T13:21:41.199Z,14.99
2022-09-26T13:24:28.733Z,14.85
2022-09-26T13:27:16.292Z,14.82
2022-09-26T13:30:03.844Z,15.03
2022-09-26T13:32:51.417Z,14.99
2022-09-26T13:35:38.954Z,14.93
2022-09-26T13:38:26.598Z,15.28
2022-09-26T13:41:14.167Z,15.39
2022-09-26T13:44:01.737Z,15.45
2022-09-26T13:46:49.338Z,15.19
2022-09-26T13:49:37.008Z,15.16
2022-09-26T13:52:24.578Z,15.00
2022-09-26T13:55:12.150Z,14.80
2022-09-26T13:57:59.699Z,14.31
2022-09-26T14:00:47.265Z,14.17
2022-09-26T14:03:34.808Z,14.43
2022-09-26T14:06:22.377Z,14.08
2022-09-26T14:09:09.945Z,14.28
2022-09-26T14:11:57.538Z,14.35
2022-09-26T14:14:45.076Z,14.31
2022-09-26T14:17:34.663Z,14.05
2022-09-26T14:20:22.198Z,14.45
2022-09-26T14:23:09.786Z,13.98
2022-09-26T14:25:57.328Z,14.14
2022-09-26T14:28:44.993Z,14.13
2022-09-26T14:31:32.614Z,13.88
2022-09-26T14:34:20.213Z,13.87
2022-09-26T14:37:07.795Z,13.96
2022-09-26T14:39:55.354Z,14.22
2022-09-26T14:42:42.930Z,13.89
2022-09-26T14:45:30.472Z,14.27
2022-09-26T14:48:18.040Z,14.18
2022-09-26T14:51:05.589Z,14.01
2022-09-26T14:53:53.153Z,14.33
2022-09-26T14:56:40.689Z,14.45
2022-09-26T14:59:28.244Z,14.23
2022-09-26T15:02:15.853Z,14.21
2022-09-26T15:05:03.456Z,14.10
2022-09-26T15:07:51.008Z,14.88
2022-09-26T15:10:38.584Z,14.71
2022-09-26T15:13:26.149Z,14.74
2022-09-26T15:16:13.742Z,14.62
2022-09-26T15:19:01.357Z,14.29
2022-09-26T15:21:48.917Z,14.29
2022-09-26T15:24:36.467Z,14.54
2022-09-26T15:27:24.022Z,14.24
2022-09-26T15:30:11.568Z,14.62
2022-09-26T15:32:59.266Z,14.47
2022-09-26T15:35:46.817Z,14.53
2022-09-26T15:38:34.381Z,13.88
2022-09-26T15:41:21.937Z,13.94
2022-09-26T15:44:09.561Z,13.98
2022-09-26T15:46:57.184Z,13.92
2022-09-26T15:49:44.879Z,14.08
2022-09-26T15:52:34.430Z,14.16
2022-09-26T15:55:22.095Z,13.80
2022-09-26T15:58:11.631Z,13.94
2022-09-26T16:00:59.205Z,14.36
2022-09-26T16:03:46.750Z,14.21
2022-09-26T16:06:34.326Z,14.03
2022-09-26T16:09:23.878Z,14.04
2022-09-26T16:12:15.051Z,13.99
2022-09-26T16:15:02.873Z,13.09
2022-09-26T16:17:50.461Z,13.46
2022-09-26T16:20:38.012Z,13.65
2022-09-26T16:23:25.571Z,13.02
2022-09-26T16:26:13.154Z,13.15
2022-09-26T16:29:00.706Z,12.94
2022-09-26T16:31:48.402Z,12.86
2022-09-26T16:34:35.935Z,13.07
2022-09-26T16:37:23.487Z,12.91
2022-09-26T16:40:11.023Z,12.73
2022-09-26T16:42:58.598Z,12.91
2022-09-26T16:45:46.154Z,12.97
2022-09-26T16:48:33.711Z,12.58
2022-09-26T16:51:21.287Z,12.23
2022-09-26T16:54:08.930Z,12.07
2022-09-26T16:56:56.574Z,11.82
2022-09-26T16:59:44.115Z,11.92
2022-09-26T17:02:31.694Z,12.12
2022-09-26T17:05:19.243Z,12.56
2022-09-26T17:08:06.926Z,12.41
2022-09-26T17:10:56.453Z,12.56
2022-09-26T17:13:44.053Z,12.39
2022-09-26T17:16:33.590Z,12.13
2022-09-26T17:19:21.148Z,12.03
2022-09-26T17:22:08.811Z,11.77
2022-09-26T17:24:56.349Z,11.51
2022-09-26T17:27:43.915Z,11.54
2022-09-26T17:30:31.468Z,12.01
2022-09-26T17:33:19.034Z,12.13
2022-09-26T17:36:06.689Z,12.38
2022-09-26T17:38:54.275Z,12.51
2022-09-26T17:41:41.851Z,12.78
2022-09-26T17:44:29.490Z,12.57
2022-09-26T17:47:19.075Z,12.76
2022-09-26T17:50:06.617Z,12.65
2022-09-26T17:52:54.195Z,12.11
2022-09-26T17:55:41.742Z,12.26
2022-09-26T17:58:29.341Z,11.84
2022-09-26T18:01:16.931Z,12.04
2022-09-26T18:04:04.554Z,12.08
2022-09-26T18:06:52.092Z,11.86
2022-09-26T18:09:39.669Z,11.81
2022-09-26T18:12:27.208Z,11.51
2022-09-26T18:15:14.852Z,11.78
2022-09-26T18:18:02.403Z,11.43
2022-09-26T18:20:49.979Z,11.69
2022-09-26T18:23:38.890Z,11.99
2022-09-26T18:26:26.452Z,11.61
2022-09-26T18:29:14.021Z,11.66
2022-09-26T18:32:01.566Z,12.01
2022-09-26T18:34:49.151Z,11.61
2022-09-26T18:37:36.707Z,11.73
2022-09-26T18:40:24.346Z,11.57
2022-09-26T18:43:11.925Z,11.39
2022-09-26T18:45:59.527Z,11.58
2022-09-26T18:48:47.095Z,11.73
2022-09-26T18:51:34.684Z,11.38
2022-09-26T18:54:22.221Z,11.30
2022-09-26T18:57:09.789Z,10.88
2022-09-26T18:59:59.327Z,10.78
2022-09-26T19:02:47.003Z,10.82
2022-09-26T19:05:34.697Z,10.61
2022-09-26T19:08:22.293Z,10.74
2022-09-26T19:11:09.848Z,10.69
2022-09-26T19:13:57.524Z,11.21
2022-09-26T19:16:45.080Z,10.97
2022-09-26T19:19:32.757Z,10.75
2022-09-26T19:22:20.322Z,10.64
2022-09-26T19:25:07.993Z,10.62
2022-09-26T19:27:55.562Z,10.48
2022-09-26T19:30:43.133Z,10.68
2022-09-26T19:33:30.732Z,10.60
2022-09-26T19:36:18.306Z,10.96
2022-09-26T19:39:05.861Z,10.84
2022-09-26T19:41:53.521Z,10.75
2022-09-26T19:44:41.077Z,10.27
2022-09-26T19:47:28.661Z,10.37
2022-09-26T19:50:16.218Z,10.02
2022-09-26T19:53:03.787Z,9.90
2022-09-26T19:55:51.327Z,10.20
2022-09-26T19:58:38.902Z,10.11
2022-09-26T20:01:26.477Z,9.76
2022-09-26T20:04:14.068Z,9.90
2022-09-26T20:07:01.612Z,9.94
2022-09-26T20:09:49.171Z,9.86
2022-09-26T20:12:36.708Z,9.64
2022-09-26T20:15:24.262Z,9.72
2022-09-26T20:18:11.817Z,9.82
2022-09-26T20:20:59.377Z,9.70
2022-09-26T20:23:46.911Z,10.10
2022-09-26T20:26:34.468Z,9.95
2022-09-26T20:29:22.014Z,9.95
2022-09-26T20:32:13.405Z,9.94
2022-09-26T20:35:02.953Z,9.94
2022-09-26T20:37:50.531Z,9.92
2022-09-26T20:40:38.089Z,10.01
2022-09-26T20:43:25.698Z,9.82
2022-09-26T20:46:13.281Z,10.01
2022-09-26T20:49:00.868Z,10.19
2022-09-26T20:51:48.400Z,10.06
2022-09-26T20:54:35.962Z,9.97
2022-09-26T20:57:23.546Z,10.35
2022-09-26T21:00:11.093Z,10.00
2022-09-26T21:02:58.733Z,10.42
2022-09-26T21:05:46.346Z,10.34
2022-09-26T21:08:33.917Z,10.55
2022-09-26T21:11:21.443Z,10.29
2022-09-26T21:14:09.109Z,10.21
2022-09-26T21:16:56.739Z,10.30
2022-09-26T21:19:44.345Z,10.33
2022-09-26T21:22:31.902Z,10.33
2022-09-26T21:25:19.440Z,10.09
2022-09-26T21:28:06.980Z,10.37
2022-09-26T21:30:54.573Z,10.01
2022-09-26T21:33:42.142Z,9.55
2022-09-26T21:36:34.525Z,9.58
2022-09-26T21:39:22.533Z,9.65
2022-09-26T21:42:10.103Z,9.76
2022-09-26T21:44:57.634Z,9.96
2022-09-26T21:47:45.201Z,9.56
2022-09-26T21:50:32.738Z,10.04
2022-09-26T21:53:20.287Z,9.99
2022-09-26T21:56:07.955Z,9.80
2022-09-26T21:58:55.576Z,9.76
2022-09-26T22:01:43.174Z,9.75
2022-09-26T22:04:30.765Z,9.80
2022-09-26T22:07:18.302Z,9.74
2022-09-26T22:10:06.301Z,9.74
2022-09-26T22:12:53.881Z,9.82
2022-09-26T22:15:41.414Z,9.71
2022-09-26T22:18:29.054Z,9.83
2022-09-26T22:21:16.632Z,9.96
2022-09-26T22:24:04.169Z,9.82
2022-09-26T22:26:51.726Z,9.45
2022-09-26T22:29:39.262Z,9.72
2022-09-26T22:32:26.916Z,9.90
2022-09-26T22:35:14.458Z,9.66
2022-09-26T22:38:02.015Z,9.60
2022-09-26T22:40:49.587Z,9.66
2022-09-26T22:43:37.171Z,9.73
2022-09-26T22:46:24.823Z,9.70
2022-09-26T22:49:12.488Z,9.46
2022-09-26T22:52:00.097Z,9.33
2022-09-26T22:54:47.756Z,9.39
2022-09-26T22:57:35.287Z,9.47
2022-09-26T23:00:22.836Z,9.52
2022-09-26T23:03:10.379Z,9.34
2022-09-26T23:05:57.929Z,9.26
2022-09-26T23:08:45.459Z,9.16
2022-09-26T23:11:33.019Z,9.22
2022-09-26T23:14:20.552Z,9.17
2022-09-26T23:17:08.184Z,9.12
2022-09-26T23:19:55.772Z,9.40
2022-09-26T23:22:43.328Z,9.38
2022-09-26T23:25:30.870Z,9.01
2022-09-26T23:28:18.415Z,8.99
2022-09-26T23:31:06.020Z,8.99
2022-09-26T23:33:53.627Z,9.10
2022-09-26T23:36:41.156Z,8.77
2022-09-26T23:39:28.706Z,9.05
2022-09-26T23:42:16.249Z,9.02
2022-09-26T23:45:05.792Z,8.94
2022-09-26T23:47:53.349Z,9.00
2022-09-26T23:50:40.885Z,9.14
2022-09-26T23:53:28.442Z,8.81
2022-09-26T23:56:16.000Z,8.85
2022-09-26T23:59:03.561Z,8.94
